createdAt,value
2018-04-19T00:01:29.553Z,16.46
2018-04-19T00:03:57.067Z,16.29
2018-04-19T00:08:58.855Z,16.29
2018-04-19T00:11:26.858Z,16.26
2018-04-19T00:13:55.082Z,16.28
2018-04-19T00:16:22.613Z,16.21
2018-04-19T00:18:50.094Z,16.08
2018-04-19T00:21:17.526Z,15.96
2018-04-19T00:23:44.971Z,15.88
2018-04-19T00:26:12.421Z,15.82
2018-04-19T00:28:39.929Z,15.85
2018-04-19T00:31:07.353Z,15.87
2018-04-19T00:33:34.847Z,15.85
2018-04-19T00:36:02.338Z,15.88
2018-04-19T00:38:29.792Z,15.80
2018-04-19T00:40:57.666Z,15.83
2018-04-19T00:43:25.355Z,15.69
2018-04-19T00:45:52.870Z,15.63
2018-04-19T00:48:20.301Z,15.47
2018-04-19T00:50:47.763Z,15.42
2018-04-19T00:53:15.579Z,15.24
2018-04-19T00:55:43.049Z,15.30
2018-04-19T00:58:10.527Z,15.31
2018-04-19T01:00:37.983Z,15.27
2018-04-19T01:03:05.422Z,15.25
2018-04-19T01:05:32.909Z,15.33
2018-04-19T01:08:00.466Z,15.27
2018-04-19T01:10:27.982Z,15.23
2018-04-19T01:12:55.540Z,15.13
2018-04-19T01:15:23.015Z,15.21
2018-04-19T01:17:50.480Z,15.16
2018-04-19T01:20:17.944Z,15.18
2018-04-19T01:22:45.410Z,15.23
2018-04-19T01:25:12.859Z,15.19
2018-04-19T01:27:40.366Z,15.04
2018-04-19T01:30:08.181Z,15.04
2018-04-19T01:32:35.752Z,14.96
2018-04-19T01:35:03.198Z,15.06
2018-04-19T01:37:30.658Z,15.01
2018-04-19T01:39:58.187Z,14.86
2018-04-19T01:42:25.644Z,14.80
2018-04-19T01:44:53.079Z,14.64
2018-04-19T01:47:20.562Z,14.55
2018-04-19T01:49:48.005Z,14.45
2018-04-19T01:52:15.477Z,14.54
2018-04-19T01:54:42.919Z,14.54
2018-04-19T01:57:10.403Z,14.43
2018-04-19T01:59:37.845Z,14.37
2018-04-19T02:02:05.275Z,14.39
2018-04-19T02:04:34.985Z,14.49
2018-04-19T02:07:04.093Z,14.35
2018-04-19T02:09:33.757Z,14.28
2018-04-19T02:12:02.452Z,14.20
2018-04-19T02:14:35.884Z,14.30
2018-04-19T02:17:05.679Z,14.19
2018-04-19T02:19:35.408Z,14.10
2018-04-19T02:22:04.822Z,14.24
2018-04-19T02:24:34.578Z,14.15
2018-04-19T02:27:03.823Z,14.07
2018-04-19T02:29:33.472Z,14.16
2018-04-19T02:32:02.775Z,14.10
2018-04-19T02:34:32.941Z,13.95
2018-04-19T02:37:02.445Z,13.89
2018-04-19T02:39:31.703Z,13.96
2018-04-19T02:42:01.106Z,13.92
2018-04-19T02:44:30.038Z,13.92
2018-04-19T02:46:59.862Z,13.84
2018-04-19T02:49:29.227Z,13.91
2018-04-19T02:51:59.304Z,13.73
2018-04-19T02:54:28.439Z,13.67
2018-04-19T02:56:58.170Z,13.59
2018-04-19T02:59:27.598Z,13.67
2018-04-19T03:01:56.896Z,13.51
2018-04-19T03:04:25.944Z,13.40
2018-04-19T03:06:55.729Z,13.33
2018-04-19T03:09:24.753Z,13.39
2018-04-19T03:11:54.514Z,13.35
2018-04-19T03:14:23.724Z,13.51
2018-04-19T03:16:54.254Z,13.53
2018-04-19T03:19:23.491Z,13.60
2018-04-19T03:21:52.665Z,13.56
2018-04-19T03:24:22.309Z,13.47
2018-04-19T03:26:51.730Z,13.55
2018-04-19T03:29:22.640Z,13.49
2018-04-19T03:31:50.076Z,13.44
2018-04-19T03:34:19.541Z,13.49
2018-04-19T03:36:48.931Z,13.56
2018-04-19T03:39:19.027Z,13.47
2018-04-19T03:41:48.469Z,13.43
2018-04-19T03:44:17.926Z,13.33
2018-04-19T03:46:46.951Z,13.28
2018-04-19T03:49:16.969Z,13.30
2018-04-19T03:51:46.330Z,13.32
2018-04-19T03:54:18.520Z,13.18
2018-04-19T03:56:48.084Z,13.35
2018-04-19T03:59:15.585Z,13.35
2018-04-19T04:01:44.921Z,13.33
2018-04-19T04:04:14.071Z,13.38
2018-04-19T04:06:44.537Z,13.38
2018-04-19T04:09:14.168Z,13.36
2018-04-19T04:11:41.717Z,13.40
2018-04-19T04:14:11.483Z,13.13
2018-04-19T04:16:51.457Z,13.08
2018-04-19T04:19:32.967Z,13.17
2018-04-19T04:22:13.533Z,13.19
2018-04-19T04:24:42.903Z,13.17
2018-04-19T04:27:17.988Z,13.08
2018-04-19T04:29:47.276Z,13.01
2018-04-19T04:32:17.772Z,13.14
2018-04-19T04:34:47.198Z,12.98
2018-04-19T04:37:16.501Z,13.10
2018-04-19T04:39:46.331Z,13.22
2018-04-19T04:42:16.300Z,13.32
2018-04-19T04:44:48.031Z,13.09
2018-04-19T04:47:18.684Z,13.05
2018-04-19T04:49:46.147Z,12.96
2018-04-19T04:52:15.540Z,12.97
2018-04-19T04:54:45.849Z,13.06
2018-04-19T04:57:15.064Z,13.18
2018-04-19T04:59:45.840Z,13.23
2018-04-19T05:02:17.034Z,13.21
2018-04-19T05:04:46.651Z,13.28
2018-04-19T05:07:15.989Z,13.39
2018-04-19T05:09:43.704Z,13.26
2018-04-19T05:12:13.984Z,13.20
2018-04-19T05:14:44.152Z,13.15
2018-04-19T05:17:11.896Z,13.26
2018-04-19T05:19:45.292Z,13.35
2018-04-19T05:22:14.962Z,13.57
2018-04-19T05:24:43.852Z,13.72
2018-04-19T05:27:15.161Z,13.80
2018-04-19T05:29:42.725Z,13.99
2018-04-19T05:32:10.218Z,14.05
2018-04-19T05:34:37.702Z,14.24
2018-04-19T05:37:05.484Z,14.30
2018-04-19T05:39:32.955Z,14.72
2018-04-19T05:42:00.397Z,15.42
2018-04-19T05:44:27.979Z,16.32
2018-04-19T05:46:55.725Z,17.03
2018-04-19T05:49:23.241Z,17.74
2018-04-19T05:51:50.762Z,18.57
2018-04-19T05:54:18.233Z,19.24
2018-04-19T05:56:46.204Z,19.97
2018-04-19T05:59:13.653Z,20.67
2018-04-19T06:01:41.106Z,21.27
2018-04-19T06:04:08.539Z,22.23
2018-04-19T06:06:35.980Z,22.83
2018-04-19T06:09:03.420Z,23.74
2018-04-19T06:11:30.879Z,24.48
2018-04-19T06:13:58.314Z,25.27
2018-04-19T06:16:25.790Z,26.03
2018-04-19T06:18:53.236Z,26.62
2018-04-19T06:21:20.685Z,26.97
2018-04-19T06:23:52.201Z,27.51
2018-04-19T06:26:19.663Z,28.40
2018-04-19T06:28:47.112Z,29.24
2018-04-19T06:31:14.560Z,29.76
2018-04-19T06:33:42.082Z,29.80
2018-04-19T06:36:09.578Z,29.74
2018-04-19T06:38:37.081Z,30.19
2018-04-19T06:41:04.511Z,30.61
2018-04-19T06:43:31.947Z,30.02
2018-04-19T06:45:59.392Z,27.35
2018-04-19T06:48:26.858Z,25.18
2018-04-19T06:50:54.326Z,23.75
2018-04-19T06:53:21.752Z,22.82
2018-04-19T06:55:49.266Z,22.52
2018-04-19T06:58:16.727Z,22.26
2018-04-19T07:00:44.161Z,22.10
2018-04-19T07:03:11.730Z,21.92
2018-04-19T07:05:39.160Z,21.55
2018-04-19T07:08:06.626Z,21.49
2018-04-19T07:10:34.092Z,21.53
2018-04-19T07:13:01.532Z,21.30
2018-04-19T07:15:29.056Z,21.32
2018-04-19T07:17:56.510Z,21.40
2018-04-19T07:20:23.967Z,21.50
2018-04-19T07:22:55.279Z,21.47
2018-04-19T07:25:22.745Z,21.53
2018-04-19T07:27:50.226Z,21.62
2018-04-19T07:30:17.663Z,21.57
2018-04-19T07:32:45.097Z,21.56
2018-04-19T07:35:12.632Z,21.59
2018-04-19T07:37:40.069Z,21.61
2018-04-19T07:40:07.582Z,21.69
2018-04-19T07:42:35.035Z,21.74
2018-04-19T07:45:02.968Z,21.91
2018-04-19T07:47:30.400Z,21.92
2018-04-19T07:49:58.492Z,21.95
2018-04-19T07:52:25.923Z,22.01
2018-04-19T07:54:53.415Z,22.00
2018-04-19T07:57:20.916Z,22.01
2018-04-19T07:59:48.415Z,22.10
2018-04-19T08:02:16.002Z,21.96
2018-04-19T08:04:43.460Z,22.01
2018-04-19T08:07:10.925Z,21.93
2018-04-19T08:09:38.891Z,22.09
2018-04-19T08:12:06.429Z,22.15
2018-04-19T08:14:33.903Z,22.21
2018-04-19T08:17:02.124Z,22.13
2018-04-19T08:19:29.570Z,22.20
2018-04-19T08:21:57.037Z,22.29
2018-04-19T08:24:24.477Z,22.47
2018-04-19T08:26:51.921Z,22.60
2018-04-19T08:29:19.365Z,22.67
2018-04-19T08:31:46.819Z,22.69
2018-04-19T08:34:14.291Z,22.66
2018-04-19T08:36:41.748Z,22.68
2018-04-19T08:39:09.194Z,22.82
2018-04-19T08:41:37.030Z,22.75
2018-04-19T08:44:04.484Z,22.97
2018-04-19T08:46:31.948Z,22.98
2018-04-19T08:48:59.397Z,23.20
2018-04-19T08:51:27.209Z,23.37
2018-04-19T08:53:54.666Z,23.46
2018-04-19T08:56:22.128Z,23.45
2018-04-19T08:58:49.630Z,23.57
2018-04-19T09:01:18.145Z,23.62
2018-04-19T09:03:45.561Z,23.68
2018-04-19T09:06:13.025Z,23.76
2018-04-19T09:08:40.452Z,23.87
2018-04-19T09:11:08.289Z,23.88
2018-04-19T09:13:35.798Z,23.95
2018-04-19T09:16:03.200Z,23.93
2018-04-19T09:18:30.613Z,23.97
2018-04-19T09:20:58.078Z,23.98
2018-04-19T09:23:25.546Z,23.87
2018-04-19T09:25:53.002Z,24.10
2018-04-19T09:28:20.450Z,24.23
2018-04-19T09:30:48.139Z,24.34
2018-04-19T09:33:15.576Z,24.31
2018-04-19T09:35:43.039Z,24.50
2018-04-19T09:38:10.974Z,24.48
2018-04-19T09:40:38.432Z,24.53
2018-04-19T09:43:05.853Z,24.66
2018-04-19T09:45:33.962Z,24.79
2018-04-19T09:48:01.411Z,24.76
2018-04-19T09:50:28.876Z,24.81
2018-04-19T09:52:56.449Z,24.88
2018-04-19T09:55:23.871Z,25.02
2018-04-19T09:58:03.100Z,25.07
2018-04-19T10:00:30.559Z,25.05
2018-04-19T10:02:58.829Z,25.10
2018-04-19T10:05:27.864Z,25.04
2018-04-19T10:07:55.324Z,25.17
2018-04-19T10:10:22.773Z,25.22
2018-04-19T10:12:50.237Z,25.32
2018-04-19T10:15:17.656Z,25.44
2018-04-19T10:17:45.114Z,25.58
2018-04-19T10:20:12.555Z,25.66
2018-04-19T10:22:40.006Z,25.75
2018-04-19T10:25:07.463Z,25.80
2018-04-19T10:27:34.912Z,25.76
2018-04-19T10:30:02.345Z,25.79
2018-04-19T10:32:29.814Z,25.91
2018-04-19T10:34:57.243Z,25.79
2018-04-19T10:37:24.796Z,25.77
2018-04-19T10:39:52.241Z,25.94
2018-04-19T10:42:19.683Z,26.03
2018-04-19T10:44:47.980Z,26.17
2018-04-19T10:47:16.173Z,26.11
2018-04-19T10:49:43.727Z,26.17
2018-04-19T10:52:11.195Z,26.28
2018-04-19T10:54:38.664Z,26.35
2018-04-19T10:57:07.359Z,26.23
2018-04-19T10:59:34.785Z,26.23
2018-04-19T11:02:02.284Z,26.11
2018-04-19T11:04:30.273Z,26.28
2018-04-19T11:06:57.851Z,26.41
2018-04-19T11:09:25.393Z,26.57
2018-04-19T11:11:52.931Z,26.38
2018-04-19T11:14:20.487Z,26.36
2018-04-19T11:16:47.959Z,26.46
2018-04-19T11:19:15.468Z,26.29
2018-04-19T11:21:42.902Z,26.31
2018-04-19T11:24:10.418Z,26.57
2018-04-19T11:26:37.840Z,26.81
2018-04-19T11:29:05.296Z,26.89
2018-04-19T11:31:33.389Z,27.05
2018-04-19T11:34:00.904Z,27.07
2018-04-19T11:36:28.358Z,27.02
2018-04-19T11:38:55.780Z,27.05
2018-04-19T11:41:23.242Z,27.30
2018-04-19T11:43:50.703Z,27.41
2018-04-19T11:46:18.204Z,27.33
2018-04-19T11:48:45.796Z,27.40
2018-04-19T11:51:13.253Z,27.22
2018-04-19T11:53:40.745Z,27.39
2018-04-19T11:56:08.186Z,27.44
2018-04-19T11:58:35.646Z,27.53
2018-04-19T12:01:03.265Z,27.68
2018-04-19T12:03:31.602Z,27.86
2018-04-19T12:05:59.136Z,27.84
2018-04-19T12:08:26.585Z,27.57
2018-04-19T12:10:54.039Z,27.67
2018-04-19T12:13:21.608Z,27.80
2018-04-19T12:15:49.056Z,27.85
2018-04-19T12:18:17.144Z,27.82
2018-04-19T12:20:44.792Z,27.68
2018-04-19T12:23:12.357Z,27.57
2018-04-19T12:25:39.782Z,27.72
2018-04-19T12:28:07.255Z,28.07
2018-04-19T12:30:35.464Z,28.69
2018-04-19T12:33:02.939Z,29.72
2018-04-19T12:35:30.390Z,31.31
2018-04-19T12:38:00.624Z,32.38
2018-04-19T12:40:28.161Z,32.52
2018-04-19T12:42:56.032Z,32.62
2018-04-19T12:45:23.532Z,32.35
2018-04-19T12:47:50.982Z,32.82
2018-04-19T12:50:18.457Z,33.02
2018-04-19T12:52:45.910Z,33.58
2018-04-19T12:55:13.357Z,34.66
2018-04-19T12:57:40.810Z,34.53
2018-04-19T13:00:08.276Z,34.58
2018-04-19T13:02:35.791Z,34.91
2018-04-19T13:05:03.316Z,34.86
2018-04-19T13:07:30.774Z,35.34
2018-04-19T13:09:58.241Z,34.68
2018-04-19T13:12:25.730Z,35.18
2018-04-19T13:14:53.298Z,34.70
2018-04-19T13:17:20.857Z,34.80
2018-04-19T13:19:48.306Z,34.14
2018-04-19T13:22:15.871Z,35.31
2018-04-19T13:24:43.327Z,35.46
2018-04-19T13:27:10.813Z,35.02
2018-04-19T13:29:39.501Z,34.51
2018-04-19T13:32:06.995Z,34.93
2018-04-19T13:34:34.787Z,34.55
2018-04-19T13:37:02.643Z,34.99
2018-04-19T13:39:30.201Z,34.61
2018-04-19T13:41:58.902Z,34.03
2018-04-19T13:44:26.405Z,34.07
2018-04-19T13:46:53.866Z,33.02
2018-04-19T13:49:21.322Z,32.41
2018-04-19T13:51:48.789Z,31.87
2018-04-19T13:54:16.700Z,31.75
2018-04-19T13:56:45.052Z,31.77
2018-04-19T13:59:13.305Z,32.16
2018-04-19T14:01:40.886Z,32.91
2018-04-19T14:04:08.921Z,32.13
2018-04-19T14:06:36.390Z,32.16
2018-04-19T14:09:04.407Z,32.36
2018-04-19T14:11:32.867Z,33.20
2018-04-19T14:14:00.340Z,32.95
2018-04-19T14:16:27.926Z,32.28
2018-04-19T14:18:55.511Z,31.49
2018-04-19T14:21:23.027Z,31.44
2018-04-19T14:23:50.477Z,31.50
2018-04-19T14:26:18.224Z,31.80
2018-04-19T14:28:46.110Z,31.76
2018-04-19T14:31:13.666Z,31.99
2018-04-19T14:33:41.407Z,31.72
2018-04-19T14:36:08.916Z,31.64
2018-04-19T14:38:36.377Z,31.49
2018-04-19T14:41:03.896Z,31.51
2018-04-19T14:43:31.675Z,31.45
2018-04-19T14:45:59.140Z,31.68
2018-04-19T14:48:27.191Z,31.86
2018-04-19T14:50:54.697Z,31.43
2018-04-19T14:53:23.044Z,31.30
2018-04-19T14:55:52.856Z,31.25
2018-04-19T14:58:20.339Z,31.34
2018-04-19T15:00:48.333Z,31.56
2018-04-19T15:03:16.403Z,30.98
2018-04-19T15:05:43.881Z,31.04
2018-04-19T15:08:11.396Z,31.05
2018-04-19T15:10:38.850Z,31.04
2018-04-19T15:13:06.341Z,31.36
2018-04-19T15:15:33.802Z,30.54
2018-04-19T15:18:01.304Z,30.70
2018-04-19T15:20:28.749Z,30.56
2018-04-19T15:22:56.206Z,30.23
2018-04-19T15:25:23.664Z,29.83
2018-04-19T15:27:51.141Z,29.80
2018-04-19T15:30:18.736Z,29.84
2018-04-19T15:32:46.191Z,29.68
2018-04-19T15:35:18.219Z,29.49
2018-04-19T15:37:45.702Z,29.26
2018-04-19T15:40:14.041Z,29.20
2018-04-19T15:42:41.499Z,28.92
2018-04-19T15:45:09.102Z,28.97
2018-04-19T15:47:36.906Z,28.91
2018-04-19T15:50:04.429Z,28.88
2018-04-19T15:52:31.883Z,28.64
2018-04-19T15:54:59.338Z,28.44
2018-04-19T15:57:26.881Z,28.38
2018-04-19T15:59:54.721Z,28.30
2018-04-19T16:02:22.191Z,28.39
2018-04-19T16:04:49.663Z,28.28
2018-04-19T16:07:17.373Z,28.27
2018-04-19T16:09:46.194Z,28.09
2018-04-19T16:12:13.735Z,28.08
2018-04-19T16:14:41.164Z,27.92
2018-04-19T16:17:08.854Z,27.97
2018-04-19T16:19:37.060Z,27.85
2018-04-19T16:22:06.413Z,27.78
2018-04-19T16:24:33.938Z,27.69
2018-04-19T16:27:01.641Z,27.49
2018-04-19T16:29:29.028Z,27.38
2018-04-19T16:31:57.370Z,27.26
2018-04-19T16:34:28.050Z,27.20
2018-04-19T16:36:56.014Z,27.05
2018-04-19T16:39:24.682Z,26.96
2018-04-19T16:41:53.176Z,26.96
2018-04-19T16:44:20.669Z,26.93
2018-04-19T16:46:48.187Z,26.86
2018-04-19T16:49:15.932Z,26.83
2018-04-19T16:51:43.408Z,26.97
2018-04-19T16:54:11.502Z,26.94
2018-04-19T16:56:39.103Z,26.81
2018-04-19T16:59:06.588Z,26.84
2018-04-19T17:01:34.141Z,26.76
2018-04-19T17:04:02.090Z,26.67
2018-04-19T17:06:29.615Z,26.70
2018-04-19T17:08:57.225Z,26.54
2018-04-19T17:11:24.927Z,26.42
2018-04-19T17:13:52.348Z,26.34
2018-04-19T17:16:19.819Z,26.24
2018-04-19T17:18:48.816Z,26.20
2018-04-19T17:21:16.292Z,26.20
2018-04-19T17:23:43.821Z,26.05
2018-04-19T17:26:11.346Z,25.86
2018-04-19T17:28:39.533Z,25.88
2018-04-19T17:31:07.036Z,25.95
2018-04-19T17:33:34.472Z,25.92
2018-04-19T17:36:01.929Z,25.79
2018-04-19T17:38:29.389Z,25.67
2018-04-19T17:40:57.247Z,25.77
2018-04-19T17:43:24.751Z,25.80
2018-04-19T17:45:52.272Z,25.82
2018-04-19T17:48:19.790Z,25.86
2018-04-19T17:50:47.321Z,25.81
2018-04-19T17:53:14.892Z,25.74
2018-04-19T17:55:42.427Z,25.72
2018-04-19T17:58:09.969Z,25.68
2018-04-19T18:00:37.569Z,25.67
2018-04-19T18:03:05.222Z,25.57
2018-04-19T18:05:33.401Z,25.49
2018-04-19T18:08:00.861Z,25.37
2018-04-19T18:10:28.329Z,25.24
2018-04-19T18:12:55.803Z,25.14
2018-04-19T18:15:23.259Z,25.06
2018-04-19T18:17:50.784Z,24.92
2018-04-19T18:20:18.223Z,24.81
2018-04-19T18:22:45.788Z,24.75
2018-04-19T18:25:14.612Z,24.67
2018-04-19T18:27:42.129Z,24.65
2018-04-19T18:30:09.941Z,24.53
2018-04-19T18:32:37.440Z,24.39
2018-04-19T18:35:05.057Z,24.36
2018-04-19T18:37:32.510Z,24.20
2018-04-19T18:39:59.970Z,23.97
2018-04-19T18:42:28.618Z,23.90
2018-04-19T18:44:56.208Z,23.94
2018-04-19T18:47:24.024Z,23.88
2018-04-19T18:49:51.506Z,23.85
2018-04-19T18:52:21.356Z,23.82
2018-04-19T18:54:49.114Z,23.79
2018-04-19T18:57:17.784Z,23.79
2018-04-19T18:59:45.605Z,23.41
2018-04-19T19:02:13.533Z,23.71
2018-04-19T19:05:01.370Z,23.70
2018-04-19T19:07:29.669Z,23.66
2018-04-19T19:09:58.032Z,23.67
2018-04-19T19:12:25.574Z,23.64
2018-04-19T19:14:53.035Z,23.59
2018-04-19T19:17:32.332Z,23.53
2018-04-19T19:20:11.609Z,23.49
2018-04-19T19:22:39.996Z,23.43
2018-04-19T19:25:07.559Z,23.41
2018-04-19T19:27:35.198Z,23.30
2018-04-19T19:30:02.805Z,23.19
2018-04-19T19:32:30.448Z,23.19
2018-04-19T19:34:57.953Z,23.15
2018-04-19T19:37:25.439Z,23.08
2018-04-19T19:39:52.974Z,22.99
2018-04-19T19:42:20.586Z,22.97
2018-04-19T19:44:48.146Z,22.89
2018-04-19T19:47:16.798Z,22.82
2018-04-19T19:49:45.064Z,22.77
2018-04-19T19:52:12.940Z,22.68
2018-04-19T19:54:41.158Z,22.59
2018-04-19T19:57:08.605Z,22.53
2018-04-19T19:59:36.333Z,22.40
2018-04-19T20:02:04.477Z,22.33
2018-04-19T20:04:32.078Z,22.29
2018-04-19T20:06:59.821Z,22.22
2018-04-19T20:09:27.298Z,22.13
2018-04-19T20:11:55.561Z,22.03
2018-04-19T20:14:23.194Z,21.97
2018-04-19T20:16:50.746Z,21.87
2018-04-19T20:19:18.566Z,21.80
2018-04-19T20:21:47.942Z,21.75
2018-04-19T20:24:15.418Z,21.48
2018-04-19T20:26:42.972Z,21.47
2018-04-19T20:29:10.426Z,21.52
2018-04-19T20:31:37.922Z,21.51
2018-04-19T20:34:05.403Z,21.42
2018-04-19T20:36:33.341Z,21.41
2018-04-19T20:39:00.850Z,21.39
2018-04-19T20:41:28.841Z,21.39
2018-04-19T20:43:56.360Z,21.32
2018-04-19T20:46:23.946Z,21.29
2018-04-19T20:48:51.450Z,21.20
2018-04-19T20:51:18.888Z,21.01
2018-04-19T20:53:46.828Z,21.04
2018-04-19T20:56:14.366Z,20.94
2018-04-19T20:58:41.844Z,20.70
2018-04-19T21:01:09.287Z,20.20
2018-04-19T21:03:37.373Z,20.28
2018-04-19T21:06:04.935Z,20.32
2018-04-19T21:08:32.421Z,20.31
2018-04-19T21:10:59.964Z,20.33
2018-04-19T21:13:27.379Z,20.34
2018-04-19T21:15:54.816Z,20.36
2018-04-19T21:18:22.273Z,20.26
2018-04-19T21:20:50.216Z,20.28
2018-04-19T21:23:17.794Z,20.15
2018-04-19T21:25:45.329Z,19.94
2018-04-19T21:28:12.782Z,19.88
2018-04-19T21:30:40.245Z,19.71
2018-04-19T21:33:07.673Z,19.78
2018-04-19T21:35:35.142Z,19.70
2018-04-19T21:38:02.579Z,19.57
2018-04-19T21:40:30.285Z,19.61
2018-04-19T21:42:57.780Z,19.62
2018-04-19T21:45:25.255Z,19.51
2018-04-19T21:47:52.817Z,19.38
2018-04-19T21:50:20.336Z,19.40
2018-04-19T21:52:47.890Z,19.40
2018-04-19T21:55:15.322Z,19.23
2018-04-19T21:57:42.799Z,19.17
2018-04-19T22:00:10.551Z,19.06
2018-04-19T22:02:37.999Z,19.03
2018-04-19T22:05:05.466Z,18.98
2018-04-19T22:07:32.939Z,18.79
2018-04-19T22:10:00.396Z,18.71
2018-04-19T22:12:28.626Z,18.47
2018-04-19T22:14:56.155Z,18.56
2018-04-19T22:17:23.713Z,18.52
2018-04-19T22:19:51.156Z,18.57
2018-04-19T22:22:18.633Z,18.35
2018-04-19T22:24:46.115Z,18.38
2018-04-19T22:27:13.543Z,18.38
2018-04-19T22:29:41.014Z,18.40
2018-04-19T22:32:08.451Z,18.21
2018-04-19T22:34:35.988Z,18.31
2018-04-19T22:37:03.564Z,18.16
2018-04-19T22:39:31.101Z,18.13
2018-04-19T22:41:58.607Z,18.13
2018-04-19T22:44:26.042Z,18.11
2018-04-19T22:46:53.610Z,18.03
2018-04-19T22:49:21.520Z,17.95
2018-04-19T22:51:48.969Z,17.88
2018-04-19T22:54:17.918Z,17.99
2018-04-19T22:56:45.366Z,17.74
2018-04-19T22:59:12.971Z,17.73
2018-04-19T23:01:40.422Z,17.72
2018-04-19T23:04:08.102Z,17.66
2018-04-19T23:06:35.629Z,17.51
2018-04-19T23:09:03.068Z,17.41
2018-04-19T23:11:30.554Z,17.24
2018-04-19T23:13:58.008Z,17.15
2018-04-19T23:16:25.437Z,17.18
2018-04-19T23:18:52.890Z,17.14
2018-04-19T23:21:20.320Z,17.23
2018-04-19T23:23:47.833Z,17.30
2018-04-19T23:26:15.346Z,17.13
2018-04-19T23:28:42.801Z,17.13
2018-04-19T23:31:10.241Z,16.99
2018-04-19T23:33:37.698Z,17.00
2018-04-19T23:36:05.159Z,17.00
2018-04-19T23:38:32.632Z,16.96
2018-04-19T23:41:00.096Z,16.93
2018-04-19T23:43:27.560Z,16.96
2018-04-19T23:45:55.138Z,16.81
2018-04-19T23:48:22.589Z,16.85
2018-04-19T23:50:50.046Z,16.89
2018-04-19T23:53:17.516Z,16.94
2018-04-19T23:55:45.098Z,16.72
2018-04-19T23:58:12.550Z,16.52
